createdAt,value
2023-01-27T00:00:23.513Z,0.00
2023-01-27T00:01:23.512Z,0.00
2023-01-27T00:02:23.530Z,0.00
2023-01-27T00:03:23.678Z,0.00
2023-01-27T00:04:23.517Z,0.00
2023-01-27T00:05:23.553Z,0.00
2023-01-27T00:06:23.511Z,0.00
2023-01-27T00:07:23.502Z,0.00
2023-01-27T00:08:23.545Z,0.00
2023-01-27T00:09:23.557Z,0.00
2023-01-27T00:10:23.570Z,0.00
2023-01-27T00:11:23.525Z,0.00
2023-01-27T00:12:23.569Z,0.00
2023-01-27T00:13:23.534Z,0.00
2023-01-27T00:14:23.551Z,0.00
2023-01-27T00:15:23.527Z,0.00
2023-01-27T00:16:23.569Z,0.00
2023-01-27T00:17:23.560Z,0.00
2023-01-27T00:18:23.543Z,0.00
2023-01-27T00:19:23.557Z,0.00
2023-01-27T00:20:23.546Z,0.00
2023-01-27T00:21:23.588Z,0.00
2023-01-27T00:22:23.538Z,0.00
2023-01-27T00:23:23.542Z,0.00
2023-01-27T00:24:23.621Z,0.00
2023-01-27T00:25:23.538Z,0.00
2023-01-27T00:26:23.568Z,0.00
2023-01-27T00:27:23.538Z,0.00
2023-01-27T00:28:23.557Z,0.00
2023-01-27T00:29:23.559Z,0.00
2023-01-27T00:30:23.545Z,0.00
2023-01-27T00:31:23.621Z,0.00
2023-01-27T00:32:23.547Z,0.00
2023-01-27T00:33:23.546Z,0.00
2023-01-27T00:34:23.547Z,0.00
2023-01-27T00:35:23.550Z,0.00
2023-01-27T00:36:23.561Z,0.00
2023-01-27T00:37:23.557Z,0.00
2023-01-27T00:38:23.670Z,0.00
2023-01-27T00:39:23.553Z,0.00
2023-01-27T00:40:23.557Z,0.00
2023-01-27T00:41:23.557Z,0.00
2023-01-27T00:42:23.559Z,0.00
2023-01-27T00:43:23.562Z,0.00
2023-01-27T00:44:23.557Z,0.00
2023-01-27T00:45:23.552Z,0.00
2023-01-27T00:46:23.652Z,0.00
2023-01-27T00:47:23.568Z,0.00
2023-01-27T00:48:23.567Z,0.00
2023-01-27T00:49:23.552Z,0.00
2023-01-27T00:50:23.564Z,0.00
2023-01-27T00:51:23.563Z,0.00
2023-01-27T00:52:23.608Z,0.00
2023-01-27T00:53:23.575Z,0.00
2023-01-27T00:54:23.553Z,0.00
2023-01-27T00:55:23.560Z,0.00
2023-01-27T00:56:23.596Z,0.00
2023-01-27T00:57:23.586Z,0.00
2023-01-27T00:58:23.581Z,0.00
2023-01-27T00:59:23.582Z,0.00
2023-01-27T01:00:23.572Z,0.00
2023-01-27T01:01:23.678Z,0.00
2023-01-27T01:02:23.583Z,0.00
2023-01-27T01:03:23.573Z,0.00
2023-01-27T01:04:23.584Z,0.00
2023-01-27T01:05:23.584Z,0.00
2023-01-27T01:06:23.601Z,0.00
2023-01-27T01:07:23.595Z,0.00
2023-01-27T01:08:23.586Z,0.00
2023-01-27T01:09:23.585Z,0.00
2023-01-27T01:10:23.591Z,0.00
2023-01-27T01:11:23.599Z,0.00
2023-01-27T01:12:23.596Z,0.00
2023-01-27T01:13:23.605Z,0.00
2023-01-27T01:14:23.604Z,0.00
2023-01-27T01:15:23.575Z,0.00
2023-01-27T01:16:23.653Z,0.00
2023-01-27T01:17:23.605Z,0.00
2023-01-27T01:18:23.593Z,0.00
2023-01-27T01:19:23.591Z,0.00
2023-01-27T01:20:23.575Z,0.00
2023-01-27T01:21:23.615Z,0.00
2023-01-27T01:22:23.590Z,0.00
2023-01-27T01:23:23.605Z,0.00
2023-01-27T01:24:23.691Z,0.00
2023-01-27T01:25:23.594Z,0.00
2023-01-27T01:26:23.619Z,0.00
2023-01-27T01:27:23.600Z,0.00
2023-01-27T01:28:23.610Z,0.00
2023-01-27T01:29:23.619Z,0.00
2023-01-27T01:30:23.619Z,0.00
2023-01-27T01:31:23.661Z,0.00
2023-01-27T01:32:23.632Z,0.00
2023-01-27T01:33:23.604Z,0.00
2023-01-27T01:34:23.604Z,0.00
2023-01-27T01:35:23.596Z,0.00
2023-01-27T01:36:23.682Z,0.00
2023-01-27T01:37:23.607Z,0.00
2023-01-27T01:38:23.601Z,0.00
2023-01-27T01:39:23.617Z,0.00
2023-01-27T01:40:25.668Z,0.00
2023-01-27T01:41:23.626Z,0.00
2023-01-27T01:42:23.747Z,0.00
2023-01-27T01:43:23.603Z,0.00
2023-01-27T01:44:23.606Z,0.00
2023-01-27T01:45:23.616Z,0.00
2023-01-27T01:46:23.679Z,0.00
2023-01-27T01:47:23.640Z,0.00
2023-01-27T01:48:23.646Z,0.00
2023-01-27T01:49:23.604Z,0.00
2023-01-27T01:50:23.606Z,0.00
2023-01-27T01:51:23.631Z,0.00
2023-01-27T01:52:23.615Z,0.00
2023-01-27T01:53:36.915Z,997.14
2023-01-27T01:54:36.901Z,997.15
2023-01-27T01:55:36.896Z,997.11
2023-01-27T01:56:36.896Z,997.13
2023-01-27T01:57:36.918Z,997.15
2023-01-27T01:58:36.921Z,997.13
2023-01-27T01:59:36.948Z,997.15
2023-01-27T02:00:36.933Z,997.10
2023-01-27T02:01:36.896Z,997.12
2023-01-27T02:02:36.926Z,997.19
2023-01-27T02:03:36.909Z,997.12
2023-01-27T02:04:36.929Z,997.08
2023-01-27T02:05:36.915Z,997.12
2023-01-27T02:06:36.908Z,997.18
2023-01-27T02:07:36.901Z,997.12
2023-01-27T02:08:36.927Z,997.17
2023-01-27T02:09:36.907Z,997.08
2023-01-27T02:10:36.953Z,997.11
2023-01-27T02:11:36.900Z,997.13
2023-01-27T02:12:36.912Z,997.12
2023-01-27T02:13:36.919Z,997.15
2023-01-27T02:14:36.948Z,997.01
2023-01-27T02:15:36.931Z,997.11
2023-01-27T02:16:37.049Z,997.06
2023-01-27T02:17:36.927Z,997.02
2023-01-27T02:18:36.921Z,997.07
2023-01-27T02:19:36.932Z,997.05
2023-01-27T02:20:36.949Z,997.02
2023-01-27T02:21:36.934Z,997.05
2023-01-27T02:22:36.923Z,997.14
2023-01-27T02:23:36.943Z,997.01
2023-01-27T02:24:36.940Z,997.01
2023-01-27T02:25:36.969Z,997.06
2023-01-27T02:26:36.949Z,997.04
2023-01-27T02:27:36.940Z,997.03
2023-01-27T02:28:36.915Z,997.08
2023-01-27T02:29:37.091Z,997.06
2023-01-27T02:30:37.147Z,997.02
2023-01-27T02:31:37.222Z,997.07
2023-01-27T02:32:39.261Z,997.10
2023-01-27T02:33:37.095Z,997.02
2023-01-27T02:34:37.083Z,997.02
2023-01-27T02:35:37.109Z,997.11
2023-01-27T02:36:37.107Z,997.12
2023-01-27T02:37:37.128Z,997.18
2023-01-27T02:38:37.095Z,997.21
2023-01-27T02:39:37.125Z,997.12
2023-01-27T02:40:37.135Z,997.15
2023-01-27T02:41:37.159Z,997.10
2023-01-27T02:42:37.194Z,997.16
2023-01-27T02:43:37.209Z,997.10
2023-01-27T02:44:37.226Z,997.08
2023-01-27T02:45:37.235Z,997.21
2023-01-27T02:46:37.216Z,997.12
2023-01-27T02:47:37.239Z,997.15
2023-01-27T02:48:37.239Z,997.15
2023-01-27T02:49:37.241Z,997.19
2023-01-27T02:50:37.252Z,997.13
2023-01-27T02:51:37.275Z,997.19
2023-01-27T02:52:37.310Z,997.15
2023-01-27T02:53:37.336Z,997.20
2023-01-27T02:54:37.346Z,997.21
2023-01-27T02:55:37.346Z,997.20
2023-01-27T02:56:37.347Z,997.23
2023-01-27T02:57:37.391Z,997.16
2023-01-27T02:58:37.391Z,997.16
2023-01-27T02:59:37.364Z,997.17
2023-01-27T03:00:37.410Z,997.14
2023-01-27T03:01:37.558Z,997.18
2023-01-27T03:02:37.578Z,997.21
2023-01-27T03:03:37.526Z,997.27
2023-01-27T03:04:37.525Z,997.25
2023-01-27T03:05:37.562Z,997.23
2023-01-27T03:06:37.497Z,997.26
2023-01-27T03:07:37.538Z,997.30
2023-01-27T03:08:37.533Z,997.28
2023-01-27T03:09:37.545Z,997.26
2023-01-27T03:10:37.529Z,997.33
2023-01-27T03:11:37.534Z,997.29
2023-01-27T03:12:37.562Z,997.31
2023-01-27T03:13:37.586Z,997.25
2023-01-27T03:14:37.562Z,997.28
2023-01-27T03:15:37.575Z,997.35
2023-01-27T03:16:37.575Z,997.35
2023-01-27T03:17:37.782Z,997.25
2023-01-27T03:18:37.817Z,997.25
2023-01-27T03:19:37.792Z,997.36
2023-01-27T03:20:38.345Z,1204.66
2023-01-27T03:21:40.028Z,-131.99
2023-01-27T03:22:40.067Z,997.28
2023-01-27T03:23:40.044Z,997.36
2023-01-27T03:24:40.038Z,997.32
2023-01-27T03:25:40.049Z,997.28
2023-01-27T03:26:40.038Z,1544.81
2023-01-27T03:27:40.026Z,997.31
2023-01-27T03:28:40.051Z,997.31
2023-01-27T03:29:40.058Z,997.35
2023-01-27T03:30:40.129Z,997.38
2023-01-27T03:31:40.105Z,997.28
2023-01-27T03:32:40.049Z,997.34
2023-01-27T03:33:40.036Z,997.38
2023-01-27T03:34:40.058Z,997.37
2023-01-27T03:35:40.060Z,997.36
2023-01-27T03:36:40.040Z,997.37
2023-01-27T03:37:40.021Z,997.32
2023-01-27T03:38:40.061Z,997.33
2023-01-27T03:39:40.028Z,997.33
2023-01-27T03:40:40.046Z,997.40
2023-01-27T03:41:40.047Z,997.37
2023-01-27T03:42:40.047Z,997.38
2023-01-27T03:43:40.070Z,997.33
2023-01-27T03:44:40.067Z,997.35
2023-01-27T03:45:40.077Z,997.33
2023-01-27T03:46:40.072Z,997.33
2023-01-27T03:47:40.060Z,997.31
2023-01-27T03:48:40.074Z,997.37
2023-01-27T03:49:40.061Z,997.31
2023-01-27T03:50:40.048Z,997.35
2023-01-27T03:51:40.054Z,997.28
2023-01-27T03:52:40.052Z,997.37
2023-01-27T03:53:40.075Z,997.33
2023-01-27T03:54:40.067Z,997.32
2023-01-27T03:55:40.068Z,997.34
2023-01-27T03:56:40.079Z,997.41
2023-01-27T03:57:40.045Z,997.47
2023-01-27T03:58:40.069Z,997.33
2023-01-27T03:59:40.065Z,997.40
2023-01-27T04:00:40.054Z,997.35
2023-01-27T04:01:40.095Z,997.34
2023-01-27T04:02:40.128Z,997.34
2023-01-27T04:03:40.066Z,997.34
2023-01-27T04:04:40.083Z,997.29
2023-01-27T04:05:40.068Z,997.35
2023-01-27T04:06:40.075Z,997.36
2023-01-27T04:07:40.069Z,997.37
2023-01-27T04:08:40.101Z,997.28
2023-01-27T04:09:40.067Z,997.34
2023-01-27T04:10:40.075Z,997.37
2023-01-27T04:11:40.084Z,997.43
2023-01-27T04:12:40.076Z,997.37
2023-01-27T04:13:40.064Z,997.36
2023-01-27T04:14:40.082Z,997.40
2023-01-27T04:15:40.110Z,997.33
2023-01-27T04:16:40.074Z,997.36
2023-01-27T04:17:40.069Z,997.33
2023-01-27T04:18:40.083Z,997.36
2023-01-27T04:19:40.070Z,997.38
2023-01-27T04:20:40.086Z,997.30
2023-01-27T04:21:40.098Z,997.48
2023-01-27T04:22:40.098Z,997.36
2023-01-27T04:23:40.089Z,997.36
2023-01-27T04:24:40.100Z,997.41
2023-01-27T04:25:40.060Z,997.45
2023-01-27T04:26:40.081Z,997.35
2023-01-27T04:27:40.124Z,997.38
2023-01-27T04:28:44.526Z,997.44
2023-01-27T04:29:40.086Z,997.37
2023-01-27T04:30:40.127Z,997.32
2023-01-27T04:31:40.224Z,997.34
2023-01-27T04:32:40.083Z,997.32
2023-01-27T04:33:40.103Z,997.28
2023-01-27T04:34:40.118Z,997.35
2023-01-27T04:35:40.098Z,997.37
2023-01-27T04:36:40.090Z,997.34
2023-01-27T04:37:40.084Z,997.37
2023-01-27T04:38:40.117Z,997.38
2023-01-27T04:39:40.100Z,997.37
2023-01-27T04:40:40.092Z,997.42
2023-01-27T04:41:40.101Z,997.40
2023-01-27T04:42:40.118Z,997.39
2023-01-27T04:43:40.115Z,997.41
2023-01-27T04:44:40.118Z,997.42
2023-01-27T04:45:40.134Z,997.49
2023-01-27T04:46:40.115Z,997.52
2023-01-27T04:47:40.111Z,997.51
2023-01-27T04:48:40.127Z,997.56
2023-01-27T04:49:40.107Z,997.55
2023-01-27T04:50:40.115Z,997.48
2023-01-27T04:51:40.083Z,997.54
2023-01-27T04:52:40.082Z,997.55
2023-01-27T04:53:40.118Z,997.56
2023-01-27T04:54:40.130Z,997.54
2023-01-27T04:55:40.112Z,997.48
2023-01-27T04:56:40.103Z,997.56
2023-01-27T04:57:40.115Z,997.62
2023-01-27T04:58:40.131Z,997.57
2023-01-27T04:59:40.120Z,997.63
2023-01-27T05:00:40.121Z,997.57
2023-01-27T05:01:40.182Z,997.58
2023-01-27T05:02:40.188Z,997.59
2023-01-27T05:03:40.129Z,997.53
2023-01-27T05:04:40.148Z,997.58
2023-01-27T05:05:40.145Z,997.58
2023-01-27T05:06:40.110Z,997.61
2023-01-27T05:07:40.112Z,997.58
2023-01-27T05:08:40.140Z,997.56
2023-01-27T05:09:40.134Z,997.60
2023-01-27T05:10:40.132Z,997.57
2023-01-27T05:11:40.118Z,997.60
2023-01-27T05:12:40.122Z,997.60
2023-01-27T05:13:40.128Z,997.63
2023-01-27T05:14:40.123Z,997.65
2023-01-27T05:15:40.235Z,997.56
2023-01-27T05:16:40.183Z,997.64
2023-01-27T05:17:40.113Z,997.65
2023-01-27T05:18:40.127Z,997.63
2023-01-27T05:19:40.131Z,997.61
2023-01-27T05:20:40.181Z,997.64
2023-01-27T05:21:40.157Z,997.63
2023-01-27T05:22:40.133Z,997.59
2023-01-27T05:23:40.143Z,997.62
2023-01-27T05:24:40.094Z,997.60
2023-01-27T05:25:40.168Z,997.72
2023-01-27T05:26:40.152Z,997.65
2023-01-27T05:27:40.161Z,997.68
2023-01-27T05:28:40.136Z,997.64
2023-01-27T05:29:40.151Z,997.64
2023-01-27T05:30:40.186Z,997.71
2023-01-27T05:31:40.250Z,997.69
2023-01-27T05:32:40.148Z,997.75
2023-01-27T05:33:40.141Z,997.74
2023-01-27T05:34:40.150Z,997.90
2023-01-27T05:35:40.170Z,997.72
2023-01-27T05:36:40.183Z,997.76
2023-01-27T05:37:40.152Z,997.73
2023-01-27T05:38:40.170Z,997.81
2023-01-27T05:39:40.153Z,997.78
2023-01-27T05:40:40.123Z,997.78
2023-01-27T05:41:40.164Z,997.84
2023-01-27T05:42:40.152Z,997.83
2023-01-27T05:43:40.150Z,997.85
2023-01-27T05:44:40.162Z,997.90
2023-01-27T05:45:40.128Z,997.93
2023-01-27T05:46:40.153Z,997.92
2023-01-27T05:47:40.185Z,997.94
2023-01-27T05:48:40.159Z,998.00
2023-01-27T05:49:40.161Z,997.95
2023-01-27T05:50:40.145Z,998.04
2023-01-27T05:51:40.190Z,997.92
2023-01-27T05:52:40.179Z,997.92
2023-01-27T05:53:40.186Z,-171.90
2023-01-27T05:54:40.176Z,998.02
2023-01-27T05:55:40.168Z,998.00
2023-01-27T05:56:40.151Z,998.02
2023-01-27T05:57:40.144Z,998.00
2023-01-27T05:58:40.195Z,998.04
2023-01-27T05:59:40.174Z,998.01
2023-01-27T06:00:40.141Z,997.98
2023-01-27T06:01:40.195Z,998.06
2023-01-27T06:02:40.272Z,998.10
2023-01-27T06:03:40.180Z,998.05
2023-01-27T06:04:40.177Z,998.12
2023-01-27T06:05:40.165Z,998.09
2023-01-27T06:06:40.177Z,998.15
2023-01-27T06:07:40.185Z,998.12
2023-01-27T06:08:40.188Z,998.11
2023-01-27T06:09:40.191Z,998.13
2023-01-27T06:10:40.175Z,998.20
2023-01-27T06:11:40.165Z,998.18
2023-01-27T06:12:40.187Z,998.30
2023-01-27T06:13:40.171Z,998.22
2023-01-27T06:14:40.207Z,998.20
2023-01-27T06:15:40.191Z,998.18
2023-01-27T06:16:40.242Z,998.22
2023-01-27T06:17:40.194Z,998.17
2023-01-27T06:18:40.198Z,998.17
2023-01-27T06:19:40.209Z,998.21
2023-01-27T06:20:40.172Z,998.18
2023-01-27T06:21:40.181Z,998.13
2023-01-27T06:22:40.211Z,998.18
2023-01-27T06:23:40.201Z,998.15
2023-01-27T06:24:40.204Z,998.11
2023-01-27T06:25:40.200Z,998.15
2023-01-27T06:26:40.195Z,998.22
2023-01-27T06:27:40.202Z,998.23
2023-01-27T06:28:40.215Z,998.23
2023-01-27T06:29:40.205Z,998.22
2023-01-27T06:30:40.233Z,998.16
2023-01-27T06:31:40.209Z,998.23
2023-01-27T06:32:40.202Z,998.21
2023-01-27T06:33:40.227Z,998.16
2023-01-27T06:34:40.205Z,998.25
2023-01-27T06:35:40.193Z,998.24
2023-01-27T06:36:40.175Z,998.22
2023-01-27T06:37:40.178Z,998.24
2023-01-27T06:38:40.216Z,998.24
2023-01-27T06:39:40.179Z,998.25
2023-01-27T06:40:40.195Z,998.23
2023-01-27T06:41:40.253Z,998.25
2023-01-27T06:42:40.205Z,998.25
2023-01-27T06:43:40.215Z,998.25
2023-01-27T06:44:40.225Z,998.19
2023-01-27T06:45:40.208Z,998.19
2023-01-27T06:46:40.263Z,998.31
2023-01-27T06:47:40.247Z,998.24
2023-01-27T06:48:40.310Z,998.26
2023-01-27T06:49:40.281Z,998.27
2023-01-27T06:50:40.264Z,998.25
2023-01-27T06:51:40.286Z,998.23
2023-01-27T06:52:40.276Z,998.29
2023-01-27T06:53:40.268Z,998.28
2023-01-27T06:54:40.297Z,998.34
2023-01-27T06:55:40.271Z,998.33
2023-01-27T06:56:40.289Z,998.40
2023-01-27T06:57:40.287Z,998.32
2023-01-27T06:58:40.308Z,998.31
2023-01-27T06:59:40.347Z,998.34
2023-01-27T07:00:40.330Z,998.40
2023-01-27T07:01:40.402Z,998.40
2023-01-27T07:02:40.482Z,998.47
2023-01-27T07:03:41.883Z,998.41
2023-01-27T07:04:40.552Z,998.35
2023-01-27T07:05:40.546Z,998.45
2023-01-27T07:06:40.562Z,998.44
2023-01-27T07:07:40.530Z,998.42
2023-01-27T07:08:40.545Z,998.50
2023-01-27T07:09:52.019Z,998.48
2023-01-27T07:10:40.553Z,998.53
2023-01-27T07:11:40.547Z,998.51
2023-01-27T07:12:40.570Z,998.46
2023-01-27T07:13:40.538Z,998.45
2023-01-27T07:14:40.549Z,998.45
2023-01-27T07:15:40.544Z,998.47
2023-01-27T07:16:40.570Z,998.49
2023-01-27T07:17:40.558Z,998.48
2023-01-27T07:18:40.568Z,998.51
2023-01-27T07:19:40.533Z,998.52
2023-01-27T07:20:40.571Z,998.45
2023-01-27T07:21:40.568Z,998.47
2023-01-27T07:22:40.560Z,998.46
2023-01-27T07:23:40.577Z,998.51
2023-01-27T07:24:40.575Z,998.48
2023-01-27T07:25:40.592Z,998.52
2023-01-27T07:26:40.559Z,998.51
2023-01-27T07:27:40.561Z,998.50
2023-01-27T07:28:40.572Z,998.55
2023-01-27T07:29:40.595Z,998.52
2023-01-27T07:30:40.637Z,998.61
2023-01-27T07:31:40.608Z,998.62
2023-01-27T07:32:40.565Z,998.54
2023-01-27T07:33:40.556Z,998.53
2023-01-27T07:34:40.561Z,998.55
2023-01-27T07:35:40.583Z,998.51
2023-01-27T07:36:40.582Z,998.56
2023-01-27T07:37:40.561Z,998.46
2023-01-27T07:38:40.575Z,998.52
2023-01-27T07:39:40.553Z,998.49
2023-01-27T07:40:40.551Z,998.51
2023-01-27T07:41:40.580Z,998.55
2023-01-27T07:42:40.599Z,998.49
2023-01-27T07:43:40.564Z,998.53
2023-01-27T07:44:40.558Z,998.61
2023-01-27T07:45:40.615Z,998.59
2023-01-27T07:46:40.595Z,998.58
2023-01-27T07:47:40.587Z,998.63
2023-01-27T07:48:40.585Z,998.57
2023-01-27T07:49:40.576Z,998.65
2023-01-27T07:50:40.565Z,998.64
2023-01-27T07:51:40.578Z,998.68
2023-01-27T07:52:40.597Z,998.59
2023-01-27T07:54:02.099Z,998.62
2023-01-27T07:55:00.796Z,998.63
2023-01-27T07:56:00.748Z,998.67
2023-01-27T07:57:00.781Z,998.63
2023-01-27T07:58:00.778Z,998.65
2023-01-27T07:59:00.757Z,998.65
2023-01-27T08:00:00.759Z,998.60
2023-01-27T08:01:00.838Z,998.67
2023-01-27T08:02:00.768Z,998.67
2023-01-27T08:03:00.849Z,998.70
2023-01-27T08:04:00.754Z,998.68
2023-01-27T08:05:00.765Z,998.69
2023-01-27T08:06:00.779Z,998.75
2023-01-27T08:07:00.775Z,998.68
2023-01-27T08:08:00.758Z,998.74
2023-01-27T08:09:00.774Z,998.74
2023-01-27T08:10:00.752Z,998.73
2023-01-27T08:11:00.760Z,998.77
2023-01-27T08:12:00.767Z,998.76
2023-01-27T08:13:00.833Z,998.76
2023-01-27T08:14:00.754Z,998.74
2023-01-27T08:15:00.771Z,998.80
2023-01-27T08:16:00.760Z,998.77
2023-01-27T08:17:00.796Z,998.79
2023-01-27T08:18:00.767Z,998.85
2023-01-27T08:19:00.835Z,998.83
2023-01-27T08:20:00.800Z,998.86
2023-01-27T08:21:00.820Z,998.86
2023-01-27T08:22:00.796Z,998.79
2023-01-27T08:23:00.825Z,998.79
2023-01-27T08:24:00.823Z,998.83
2023-01-27T08:25:00.766Z,998.93
2023-01-27T08:26:00.763Z,998.87
2023-01-27T08:27:00.821Z,999.02
2023-01-27T08:28:00.822Z,998.89
2023-01-27T08:29:00.783Z,998.93
2023-01-27T08:30:00.802Z,998.95
2023-01-27T08:31:00.907Z,998.94
2023-01-27T08:32:00.852Z,998.88
2023-01-27T08:33:00.800Z,998.94
2023-01-27T08:34:01.152Z,1546.06
2023-01-27T08:35:01.731Z,998.94
2023-01-27T08:36:01.759Z,998.97
2023-01-27T08:37:01.765Z,999.02
2023-01-27T08:38:01.755Z,998.98
2023-01-27T08:39:01.740Z,998.95
2023-01-27T08:40:01.753Z,998.98
2023-01-27T08:41:01.733Z,999.06
2023-01-27T08:42:01.733Z,999.07
2023-01-27T08:43:04.670Z,999.07
2023-01-27T08:44:01.758Z,999.00
2023-01-27T08:45:01.774Z,999.07
2023-01-27T08:46:01.784Z,999.14
2023-01-27T08:47:01.757Z,999.17
2023-01-27T08:48:01.757Z,999.14
2023-01-27T08:49:01.798Z,999.16
2023-01-27T08:50:01.745Z,999.16
2023-01-27T08:51:01.771Z,999.20
2023-01-27T08:52:01.778Z,999.18
2023-01-27T08:53:01.785Z,999.22
2023-01-27T08:54:01.752Z,999.30
2023-01-27T08:55:01.792Z,999.18
2023-01-27T08:56:01.819Z,999.27
2023-01-27T08:57:01.768Z,999.32
2023-01-27T08:58:01.784Z,999.30
2023-01-27T08:59:01.790Z,999.24
2023-01-27T09:00:01.780Z,999.30
2023-01-27T09:01:01.813Z,999.16
2023-01-27T09:02:01.771Z,999.20
2023-01-27T09:03:01.785Z,999.25
2023-01-27T09:04:01.794Z,999.29
2023-01-27T09:05:01.799Z,999.28
2023-01-27T09:06:01.845Z,999.28
2023-01-27T09:07:01.807Z,999.27
2023-01-27T09:08:01.853Z,999.28
2023-01-27T09:09:01.830Z,999.37
2023-01-27T09:10:13.788Z,999.33
2023-01-27T09:11:01.816Z,999.40
2023-01-27T09:12:01.835Z,1546.81
2023-01-27T09:13:01.839Z,999.39
2023-01-27T09:14:01.828Z,999.37
2023-01-27T09:15:01.814Z,999.42
2023-01-27T09:16:01.929Z,999.40
2023-01-27T09:17:01.817Z,999.44
2023-01-27T09:18:01.805Z,999.42
2023-01-27T09:19:01.840Z,999.44
2023-01-27T09:20:01.834Z,999.39
2023-01-27T09:21:01.880Z,999.36
2023-01-27T09:22:01.807Z,999.41
2023-01-27T09:23:01.822Z,999.38
2023-01-27T09:24:01.846Z,999.42
2023-01-27T09:25:01.868Z,999.46
2023-01-27T09:26:01.793Z,999.44
2023-01-27T09:27:01.803Z,999.44
2023-01-27T09:28:01.849Z,999.43
2023-01-27T09:29:01.800Z,999.41
2023-01-27T09:30:01.860Z,999.42
2023-01-27T09:31:01.948Z,999.45
2023-01-27T09:32:01.895Z,999.43
2023-01-27T09:33:01.828Z,999.41
2023-01-27T09:34:01.852Z,999.43
2023-01-27T09:35:01.872Z,999.42
2023-01-27T09:36:01.917Z,999.45
2023-01-27T09:37:01.824Z,1547.42
2023-01-27T09:38:01.838Z,999.49
2023-01-27T09:39:01.869Z,999.48
2023-01-27T09:40:01.837Z,999.43
2023-01-27T09:41:01.844Z,999.47
2023-01-27T09:42:01.822Z,999.49
2023-01-27T09:43:01.835Z,999.50
2023-01-27T09:44:01.842Z,999.47
2023-01-27T09:45:01.825Z,999.42
2023-01-27T09:46:01.935Z,999.49
2023-01-27T09:47:01.803Z,999.52
2023-01-27T09:48:01.909Z,999.53
2023-01-27T09:49:01.863Z,999.47
2023-01-27T09:50:01.870Z,999.47
2023-01-27T09:51:04.059Z,999.51
2023-01-27T09:52:01.886Z,999.48
2023-01-27T09:53:01.837Z,999.51
2023-01-27T09:54:01.836Z,999.57
2023-01-27T09:55:01.865Z,999.50
2023-01-27T09:56:01.976Z,999.40
2023-01-27T09:57:01.828Z,999.42
2023-01-27T09:58:01.886Z,999.39
2023-01-27T09:59:01.863Z,999.38
2023-01-27T10:00:01.869Z,999.42
2023-01-27T10:01:01.857Z,999.40
2023-01-27T10:02:01.845Z,999.40
2023-01-27T10:03:01.875Z,999.39
2023-01-27T10:04:01.859Z,999.37
2023-01-27T10:05:01.859Z,999.37
2023-01-27T10:06:01.858Z,999.37
2023-01-27T10:07:01.859Z,999.33
2023-01-27T10:08:01.896Z,999.41
2023-01-27T10:09:01.875Z,999.37
2023-01-27T10:10:01.864Z,999.33
2023-01-27T10:11:01.851Z,999.38
2023-01-27T10:12:01.871Z,999.40
2023-01-27T10:13:01.870Z,999.36
2023-01-27T10:14:01.940Z,999.34
2023-01-27T10:15:01.844Z,999.39
2023-01-27T10:16:01.948Z,999.38
2023-01-27T10:17:01.925Z,999.35
2023-01-27T10:18:01.897Z,999.24
2023-01-27T10:19:01.890Z,999.27
2023-01-27T10:20:01.973Z,999.26
2023-01-27T10:21:01.958Z,999.33
2023-01-27T10:22:01.930Z,999.36
2023-01-27T10:23:01.929Z,999.35
2023-01-27T10:24:02.042Z,999.34
2023-01-27T10:25:01.982Z,999.43
2023-01-27T10:26:02.001Z,999.43
2023-01-27T10:27:01.984Z,999.37
2023-01-27T10:28:01.991Z,999.35
2023-01-27T10:29:02.012Z,999.36
2023-01-27T10:30:02.063Z,999.31
2023-01-27T10:31:02.129Z,999.39
2023-01-27T10:32:02.161Z,999.33
2023-01-27T10:33:02.027Z,999.40
2023-01-27T10:34:02.035Z,999.41
2023-01-27T10:35:02.105Z,999.34
2023-01-27T10:36:02.131Z,999.37
2023-01-27T10:37:02.111Z,999.36
2023-01-27T10:38:02.117Z,999.40
2023-01-27T10:39:02.174Z,999.38
2023-01-27T10:40:02.167Z,999.34
2023-01-27T10:41:02.148Z,999.38
2023-01-27T10:42:02.168Z,999.35
2023-01-27T10:43:02.172Z,999.39
2023-01-27T10:44:02.185Z,999.40
2023-01-27T10:45:02.211Z,999.40
2023-01-27T10:46:02.299Z,999.41
2023-01-27T10:47:02.282Z,999.37
2023-01-27T10:48:02.274Z,999.40
2023-01-27T10:49:02.245Z,999.38
2023-01-27T10:50:02.337Z,999.37
2023-01-27T10:51:02.292Z,999.47
2023-01-27T10:52:02.267Z,999.42
2023-01-27T10:53:02.296Z,999.47
2023-01-27T10:54:02.321Z,999.46
2023-01-27T10:55:02.371Z,999.47
2023-01-27T10:56:02.366Z,999.43
2023-01-27T10:57:02.359Z,999.49
2023-01-27T10:58:02.371Z,999.44
2023-01-27T10:59:03.004Z,999.51
2023-01-27T11:00:46.253Z,999.44
2023-01-27T11:01:20.299Z,999.24
2023-01-27T11:02:02.533Z,999.34
2023-01-27T11:03:02.393Z,999.32
2023-01-27T11:04:02.455Z,999.36
2023-01-27T11:05:02.416Z,999.45
2023-01-27T11:06:02.404Z,999.36
2023-01-27T11:07:02.443Z,999.37
2023-01-27T11:08:02.435Z,999.32
2023-01-27T11:09:02.412Z,999.40
2023-01-27T11:10:02.405Z,999.37
2023-01-27T11:11:02.408Z,999.37
2023-01-27T11:12:02.384Z,999.43
2023-01-27T11:13:02.432Z,999.44
2023-01-27T11:14:02.404Z,999.42
2023-01-27T11:15:02.433Z,999.41
2023-01-27T11:16:02.437Z,999.49
2023-01-27T11:17:02.382Z,999.42
2023-01-27T11:18:02.385Z,999.46
2023-01-27T11:19:02.583Z,999.44
2023-01-27T11:20:02.432Z,999.49
2023-01-27T11:21:02.510Z,999.43
2023-01-27T11:22:08.162Z,999.40
2023-01-27T11:23:02.406Z,999.40
2023-01-27T11:24:02.425Z,999.43
2023-01-27T11:25:02.437Z,999.36
2023-01-27T11:26:02.389Z,999.37
2023-01-27T11:27:02.405Z,999.39
2023-01-27T11:28:02.410Z,999.40
2023-01-27T11:29:02.457Z,999.37
2023-01-27T11:30:02.496Z,999.37
2023-01-27T11:31:02.551Z,999.37
2023-01-27T11:32:02.492Z,999.39
2023-01-27T11:33:02.444Z,999.47
2023-01-27T11:34:02.416Z,999.42
2023-01-27T11:35:02.429Z,999.40
2023-01-27T11:36:02.432Z,999.42
2023-01-27T11:37:02.398Z,999.46
2023-01-27T11:38:14.884Z,999.30
2023-01-27T11:39:02.433Z,999.40
2023-01-27T11:40:02.466Z,999.38
2023-01-27T11:41:02.455Z,999.39
2023-01-27T11:42:02.522Z,999.31
2023-01-27T11:43:02.452Z,999.33
2023-01-27T11:44:02.475Z,999.30
2023-01-27T11:45:02.441Z,999.27
2023-01-27T11:46:02.537Z,999.29
2023-01-27T11:47:02.439Z,999.26
2023-01-27T11:48:02.431Z,999.28
2023-01-27T11:49:02.443Z,999.20
2023-01-27T11:50:02.461Z,999.22
2023-01-27T11:51:02.522Z,999.21
2023-01-27T11:52:02.486Z,999.20
2023-01-27T11:53:02.988Z,999.12
2023-01-27T11:54:02.416Z,999.10
2023-01-27T11:55:02.441Z,999.13
2023-01-27T11:56:02.474Z,999.13
2023-01-27T11:57:02.455Z,999.14
2023-01-27T11:58:02.426Z,999.13
2023-01-27T11:59:02.461Z,999.13
2023-01-27T12:00:02.445Z,999.10
2023-01-27T12:01:02.442Z,999.16
2023-01-27T12:02:02.434Z,999.14
2023-01-27T12:03:02.462Z,999.01
2023-01-27T12:04:02.497Z,999.10
2023-01-27T12:05:02.549Z,999.08
2023-01-27T12:06:02.444Z,999.10
2023-01-27T12:07:02.518Z,999.11
2023-01-27T12:08:02.454Z,999.01
2023-01-27T12:09:02.425Z,999.00
2023-01-27T12:10:02.447Z,999.01
2023-01-27T12:11:02.500Z,998.95
2023-01-27T12:12:02.498Z,998.99
2023-01-27T12:13:02.447Z,999.01
2023-01-27T12:14:02.437Z,999.01
2023-01-27T12:15:02.456Z,999.03
2023-01-27T12:16:02.552Z,999.01
2023-01-27T12:17:02.459Z,998.96
2023-01-27T12:18:02.466Z,999.00
2023-01-27T12:19:02.455Z,998.95
2023-01-27T12:20:02.459Z,999.03
2023-01-27T12:21:02.485Z,999.03
2023-01-27T12:22:02.487Z,999.01
2023-01-27T12:23:02.475Z,998.99
2023-01-27T12:24:02.520Z,998.92
2023-01-27T12:25:02.446Z,998.89
2023-01-27T12:26:02.481Z,999.00
2023-01-27T12:27:02.474Z,998.95
2023-01-27T12:28:02.460Z,998.95
2023-01-27T12:29:02.456Z,998.86
2023-01-27T12:30:02.610Z,998.97
2023-01-27T12:31:02.494Z,998.95
2023-01-27T12:32:02.523Z,998.89
2023-01-27T12:33:02.556Z,998.93
2023-01-27T12:34:02.506Z,998.91
2023-01-27T12:35:02.499Z,998.85
2023-01-27T12:36:02.473Z,998.87